createdAt,value
2019-04-29T00:03:29.470Z,22
2019-04-29T00:08:32.058Z,15
2019-04-29T00:13:34.714Z,15
2019-04-29T00:18:36.875Z,20
2019-04-29T00:23:39.288Z,18
2019-04-29T00:28:41.819Z,15
2019-04-29T00:38:46.755Z,16
2019-04-29T00:43:49.117Z,21
2019-04-29T00:48:51.682Z,16
2019-04-29T00:53:54.030Z,19
2019-04-29T00:58:56.606Z,23
2019-04-29T01:03:59.048Z,17
2019-04-29T01:09:01.432Z,18
2019-04-29T01:14:03.863Z,18
2019-04-29T01:19:06.389Z,20
2019-04-29T01:24:08.882Z,20
2019-04-29T01:29:11.371Z,20
2019-04-29T01:34:13.686Z,18
2019-04-29T01:39:16.156Z,18
2019-04-29T01:44:18.672Z,20
2019-04-29T01:49:21.075Z,21
2019-04-29T01:54:23.562Z,18
2019-04-29T01:59:26.109Z,17
2019-04-29T02:04:28.436Z,21
2019-04-29T02:09:31.079Z,18
2019-04-29T02:14:33.358Z,16
2019-04-29T02:19:35.799Z,20
2019-04-29T02:24:38.273Z,21
2019-04-29T02:29:40.809Z,16
2019-04-29T02:34:43.185Z,16
2019-04-29T02:39:45.853Z,19
2019-04-29T02:44:48.143Z,19
2019-04-29T02:49:50.635Z,19
2019-04-29T02:54:53.007Z,20
2019-04-29T02:59:55.572Z,22
2019-04-29T03:04:58.474Z,19
2019-04-29T03:10:00.430Z,25
2019-04-29T03:15:02.939Z,25
2019-04-29T03:20:05.635Z,27
2019-04-29T03:25:07.984Z,25
2019-04-29T03:35:12.746Z,22
2019-04-29T03:40:15.180Z,31
2019-04-29T03:45:17.622Z,29
2019-04-29T03:50:20.096Z,34
2019-04-29T03:55:37.945Z,37
2019-04-29T04:00:25.227Z,35
2019-04-29T04:05:27.558Z,32
2019-04-29T04:10:29.925Z,32
2019-04-29T04:15:32.365Z,38
2019-04-29T04:20:34.856Z,35
2019-04-29T04:30:39.738Z,29
2019-04-29T04:35:42.193Z,27
2019-04-29T04:40:44.678Z,26
2019-04-29T04:45:47.091Z,22
2019-04-29T04:50:49.570Z,22
2019-04-29T04:55:52.057Z,22
2019-04-29T05:00:54.502Z,25
2019-04-29T05:05:56.949Z,21
2019-04-29T05:10:59.393Z,24
2019-04-29T05:16:01.869Z,19
2019-04-29T05:21:04.308Z,21
2019-04-29T05:26:06.845Z,20
2019-04-29T05:31:09.275Z,23
2019-04-29T05:36:11.680Z,23
2019-04-29T05:41:14.186Z,19
2019-04-29T05:46:17.231Z,22
2019-04-29T05:51:22.664Z,19
2019-04-29T05:56:21.664Z,19
2019-04-29T06:01:24.084Z,18
2019-04-29T06:06:26.480Z,17
2019-04-29T06:11:29.042Z,18
2019-04-29T06:16:31.448Z,15
2019-04-29T06:21:33.863Z,15
2019-04-29T06:26:36.435Z,16
2019-04-29T06:31:38.744Z,14
2019-04-29T06:36:41.227Z,14
2019-04-29T06:41:45.064Z,16
2019-04-29T06:46:46.157Z,14
2019-04-29T06:51:48.595Z,13
2019-04-29T06:56:51.094Z,16
2019-04-29T07:01:53.803Z,18
2019-04-29T07:06:57.391Z,20
2019-04-29T07:12:01.495Z,18
2019-04-29T07:17:05.420Z,18
2019-04-29T07:22:03.418Z,15
2019-04-29T07:27:05.735Z,15
2019-04-29T07:32:09.191Z,16
2019-04-29T07:37:10.684Z,19
2019-04-29T07:42:13.453Z,16
2019-04-29T07:47:15.568Z,19
2019-04-29T07:52:18.030Z,22
2019-04-29T07:57:20.488Z,18
2019-04-29T08:02:22.949Z,21
2019-04-29T08:07:25.443Z,19
2019-04-29T08:12:27.892Z,19
2019-04-29T08:17:30.440Z,18
2019-04-29T08:22:32.857Z,18
2019-04-29T08:27:39.944Z,18
2019-04-29T08:32:38.149Z,17
2019-04-29T08:37:40.246Z,17
2019-04-29T08:42:46.517Z,17
2019-04-29T08:47:45.143Z,16
2019-04-29T08:52:47.696Z,17
2019-04-29T08:57:50.029Z,15
2019-04-29T09:02:52.626Z,16
2019-04-29T09:07:57.206Z,16
2019-04-29T09:12:57.703Z,15
2019-04-29T09:18:00.659Z,13
2019-04-29T09:23:02.269Z,12
2019-04-29T09:28:04.723Z,13
2019-04-29T09:33:08.633Z,12
2019-04-29T09:38:10.213Z,12
2019-04-29T09:43:15.468Z,13
2019-04-29T09:48:14.920Z,12
2019-04-29T09:53:17.069Z,11
2019-04-29T09:58:19.522Z,14
2019-04-29T10:03:22.197Z,13
2019-04-29T10:08:24.417Z,11
2019-04-29T10:13:26.871Z,14
2019-04-29T10:18:29.958Z,13
2019-04-29T10:23:31.850Z,14
2019-04-29T10:28:34.207Z,13
2019-04-29T10:33:36.879Z,12
2019-04-29T10:38:40.385Z,11
2019-04-29T10:43:41.581Z,11
2019-04-29T10:48:44.234Z,10
2019-04-29T10:58:49.610Z,9
2019-04-29T11:03:55.767Z,9
2019-04-29T11:08:53.892Z,9
2019-04-29T11:18:59.678Z,7
2019-04-29T11:24:01.345Z,7
2019-04-29T11:29:06.139Z,5
2019-04-29T11:34:06.189Z,5
2019-04-29T11:39:13.329Z,5
2019-04-29T11:44:11.290Z,5
2019-04-29T11:49:13.806Z,6
2019-04-29T11:54:17.986Z,5
2019-04-29T11:59:18.584Z,5
2019-04-29T12:04:20.923Z,8
2019-04-29T12:09:25.299Z,8
2019-04-29T12:14:25.837Z,9
2019-04-29T12:19:28.481Z,11
2019-04-29T12:24:31.080Z,9
2019-04-29T12:29:33.210Z,9
2019-04-29T12:34:35.702Z,10
2019-04-29T12:39:43.217Z,11
2019-04-29T12:44:44.389Z,9
2019-04-29T12:49:46.340Z,11
2019-04-29T12:54:45.973Z,10
2019-04-29T12:59:47.993Z,10
2019-04-29T13:04:51.474Z,11
2019-04-29T13:09:52.920Z,10
2019-04-29T13:15:02.472Z,13
2019-04-29T13:20:01.798Z,12
2019-04-29T13:25:00.596Z,10
2019-04-29T13:30:06.621Z,10
2019-04-29T13:35:10.243Z,8
2019-04-29T13:40:07.612Z,9
2019-04-29T13:45:13.067Z,7
2019-04-29T13:50:18.663Z,6
2019-04-29T13:55:17.396Z,6
2019-04-29T14:00:19.858Z,5
2019-04-29T14:05:20.011Z,4
2019-04-29T14:10:22.360Z,4
2019-04-29T14:15:24.841Z,4
2019-04-29T14:20:27.272Z,3
2019-04-29T14:25:29.767Z,3
2019-04-29T14:30:38.747Z,3
2019-04-29T14:35:36.285Z,3
2019-04-29T14:45:39.750Z,3
2019-04-29T14:50:42.282Z,3
2019-04-29T14:55:44.858Z,2
2019-04-29T15:00:47.078Z,2
2019-04-29T15:05:49.498Z,4
2019-04-29T15:10:51.896Z,2
2019-04-29T15:16:04.119Z,2
2019-04-29T15:20:56.976Z,2
2019-04-29T15:25:59.310Z,2
2019-04-29T15:31:01.713Z,2
2019-04-29T15:36:04.122Z,3
2019-04-29T15:46:11.216Z,2
2019-04-29T15:51:13.807Z,2
2019-04-29T15:56:28.057Z,1
2019-04-29T16:11:21.342Z,3
2019-04-29T16:16:23.772Z,2
2019-04-29T16:21:26.270Z,3
2019-04-29T16:26:30.037Z,2
2019-04-29T16:36:33.626Z,2
2019-04-29T16:41:36.086Z,2
2019-04-29T16:46:38.643Z,3
2019-04-29T16:51:41.162Z,7
2019-04-29T16:56:43.875Z,6
2019-04-29T17:01:45.968Z,8
2019-04-29T17:07:11.030Z,11
2019-04-29T17:11:55.696Z,12
2019-04-29T17:16:53.331Z,15
2019-04-29T17:22:22.924Z,14
2019-04-29T17:26:58.218Z,16
2019-04-29T17:32:01.598Z,18
2019-04-29T17:35:16.450Z,1
2019-04-29T17:37:03.151Z,20
2019-04-29T17:42:05.877Z,21
2019-04-29T17:47:11.301Z,23
2019-04-29T17:52:10.520Z,26
2019-04-29T17:57:26.134Z,27
2019-04-29T18:02:21.626Z,28
2019-04-29T18:07:18.095Z,30
2019-04-29T18:12:20.379Z,33
2019-04-29T18:17:26.663Z,36
2019-04-29T18:22:25.223Z,41
2019-04-29T18:27:27.710Z,38
2019-04-29T18:32:35.445Z,45
2019-04-29T18:37:34.965Z,42
2019-04-29T18:42:38.333Z,43
2019-04-29T18:47:38.829Z,58
2019-04-29T18:52:39.967Z,55
2019-04-29T18:57:42.442Z,59
2019-04-29T19:02:47.974Z,56
2019-04-29T19:07:54.551Z,62
2019-04-29T19:12:58.066Z,63
2019-04-29T19:17:58.980Z,79
2019-04-29T19:23:05.289Z,71
2019-04-29T19:27:57.204Z,71
2019-04-29T19:33:00.551Z,76
2019-04-29T19:38:02.079Z,77
2019-04-29T19:43:06.067Z,69
2019-04-29T19:48:07.028Z,63
2019-04-29T19:53:09.632Z,52
2019-04-29T19:58:12.814Z,48
2019-04-29T20:03:21.077Z,46
2019-04-29T20:13:19.841Z,43
2019-04-29T20:23:26.028Z,32
2019-04-29T20:28:26.807Z,28
2019-04-29T20:33:29.299Z,27
2019-04-29T20:43:35.757Z,31
2019-04-29T20:48:37.164Z,78
2019-04-29T20:53:40.103Z,65
2019-04-29T20:58:44.170Z,98
2019-04-29T21:03:46.027Z,109
2019-04-29T21:08:50.915Z,85
2019-04-29T21:13:54.469Z,80
2019-04-29T21:18:52.747Z,63
2019-04-29T21:23:55.242Z,49
2019-04-29T21:28:56.145Z,47
2019-04-29T21:33:58.965Z,71
2019-04-29T21:39:02.130Z,76
2019-04-29T21:44:03.548Z,80
2019-04-29T21:49:11.372Z,80
2019-04-29T21:54:09.544Z,78
2019-04-29T21:59:12.263Z,80
2019-04-29T22:04:13.411Z,75
2019-04-29T22:09:15.985Z,77
2019-04-29T22:14:18.259Z,75
2019-04-29T22:19:24.555Z,65
2019-04-29T22:24:26.090Z,63
2019-04-29T22:29:25.648Z,62
2019-04-29T22:34:28.090Z,60
2019-04-29T22:39:30.569Z,65
2019-04-29T22:44:33.038Z,61
2019-04-29T22:49:35.483Z,62
2019-04-29T22:54:38.017Z,56
2019-04-29T22:59:40.409Z,56
2019-04-29T23:04:47.107Z,55
2019-04-29T23:09:46.226Z,55
2019-04-29T23:14:47.751Z,61
2019-04-29T23:19:51.840Z,48
2019-04-29T23:24:52.741Z,50
2019-04-29T23:29:55.259Z,52
2019-04-29T23:35:01.630Z,49
2019-04-29T23:40:00.058Z,45
2019-04-29T23:45:02.576Z,43
2019-04-29T23:50:05.034Z,41
2019-04-29T23:55:07.713Z,46
